createdAt,value
2022-12-08T00:00:42.702Z,100406.41
2022-12-08T00:03:10.776Z,100407.88
2022-12-08T00:05:56.103Z,100408.84
2022-12-08T00:08:41.107Z,100405.31
2022-12-08T00:11:12.950Z,100400.53
2022-12-08T00:13:41.046Z,100395.38
2022-12-08T00:16:10.345Z,100392.00
2022-12-08T00:18:38.094Z,100403.72
2022-12-08T00:21:05.895Z,100397.22
2022-12-08T00:23:33.590Z,100397.00
2022-12-08T00:26:03.090Z,100392.09
2022-12-08T00:28:30.766Z,100400.78
2022-12-08T00:30:58.493Z,100401.75
2022-12-08T00:33:28.418Z,100407.41
2022-12-08T00:35:56.105Z,100401.00
2022-12-08T00:38:23.852Z,100413.38
2022-12-08T00:40:51.610Z,100421.09
2022-12-08T00:43:19.293Z,100419.88
2022-12-08T00:45:47.067Z,100413.13
2022-12-08T00:48:14.879Z,100410.94
2022-12-08T00:50:43.945Z,100412.91
2022-12-08T00:53:11.678Z,100418.03
2022-12-08T00:55:39.436Z,100427.09
2022-12-08T00:58:07.138Z,100420.97
2022-12-08T01:00:39.035Z,100423.06
2022-12-08T01:03:06.944Z,100421.59
2022-12-08T01:05:34.718Z,100427.94
2022-12-08T01:08:06.119Z,100427.84
2022-12-08T01:10:36.197Z,100416.06
2022-12-08T01:13:03.987Z,100402.50
2022-12-08T01:15:31.698Z,100397.97
2022-12-08T01:17:59.426Z,100411.09
2022-12-08T01:20:27.231Z,100413.03
2022-12-08T01:22:55.003Z,100407.50
2022-12-08T01:25:24.134Z,100401.53
2022-12-08T01:27:52.975Z,100401.88
2022-12-08T01:30:20.958Z,100403.00
2022-12-08T01:32:48.796Z,100400.53
2022-12-08T01:35:16.516Z,100399.06
2022-12-08T01:37:44.265Z,100401.16
2022-12-08T01:40:12.089Z,100392.44
2022-12-08T01:42:41.167Z,100396.88
2022-12-08T01:45:15.007Z,100388.56
2022-12-08T01:47:44.662Z,100374.97
2022-12-08T01:50:14.237Z,100385.38
2022-12-08T01:52:43.376Z,100381.59
2022-12-08T01:55:16.535Z,100380.97
2022-12-08T01:57:49.732Z,100371.16
2022-12-08T02:00:19.393Z,100367.50
2022-12-08T02:02:51.287Z,100373.41
2022-12-08T02:05:21.167Z,100367.38
2022-12-08T02:07:49.622Z,100367.13
2022-12-08T02:10:20.914Z,100370.44
2022-12-08T02:12:51.435Z,100366.78
2022-12-08T02:15:19.595Z,100377.91
2022-12-08T02:17:57.574Z,100374.97
2022-12-08T02:20:43.081Z,100365.19
2022-12-08T02:23:16.796Z,100375.19
2022-12-08T02:25:58.071Z,100366.53
2022-12-08T02:28:38.499Z,100367.50
2022-12-08T02:31:16.072Z,100374.75
2022-12-08T02:34:04.448Z,100368.38
2022-12-08T02:36:39.741Z,100371.66
2022-12-08T02:39:12.066Z,100372.91
2022-12-08T02:41:56.330Z,100371.16
2022-12-08T02:44:39.356Z,100374.69
2022-12-08T02:47:11.014Z,100374.00
2022-12-08T02:49:41.818Z,100366.78
2022-12-08T02:52:32.207Z,100371.06
2022-12-08T02:55:05.417Z,100359.44
2022-12-08T02:57:44.274Z,100360.91
2022-12-08T03:00:15.792Z,100350.63
2022-12-08T03:02:52.860Z,100353.31
2022-12-08T03:05:31.133Z,100349.78
2022-12-08T03:08:02.492Z,100355.91
2022-12-08T03:10:33.734Z,100355.50
2022-12-08T03:13:03.720Z,100355.16
2022-12-08T03:15:32.823Z,100348.44
2022-12-08T03:18:01.900Z,100334.72
2022-12-08T03:20:32.135Z,100327.84
2022-12-08T03:23:01.381Z,100322.47
2022-12-08T03:25:34.105Z,100321.25
2022-12-08T03:28:04.604Z,100318.56
2022-12-08T03:30:37.714Z,100325.03
2022-12-08T03:33:10.598Z,100340.34
2022-12-08T03:35:40.692Z,100345.00
2022-12-08T03:38:13.451Z,100343.03
2022-12-08T03:40:50.892Z,100336.66
2022-12-08T03:43:34.177Z,100327.72
2022-12-08T03:46:06.999Z,100326.38
2022-12-08T03:48:44.853Z,100321.34
2022-12-08T03:51:17.988Z,100321.50
2022-12-08T03:53:49.484Z,100314.63
2022-12-08T03:56:23.457Z,100309.66
2022-12-08T03:58:54.435Z,100307.56
2022-12-08T04:01:27.444Z,100299.97
2022-12-08T04:04:00.029Z,100298.47
2022-12-08T04:06:44.022Z,100299.97
2022-12-08T04:09:23.877Z,100302.78
2022-12-08T04:11:54.157Z,100306.44
2022-12-08T04:14:26.726Z,100304.34
2022-12-08T04:16:54.809Z,100303.75
2022-12-08T04:19:22.599Z,100308.91
2022-12-08T04:21:54.580Z,100306.56
2022-12-08T04:24:22.339Z,100309.75
2022-12-08T04:26:54.929Z,100305.59
2022-12-08T04:29:22.694Z,100301.06
2022-12-08T04:31:53.536Z,100315.38
2022-12-08T04:34:21.297Z,100299.97
2022-12-08T04:36:57.935Z,100303.03
2022-12-08T04:39:28.729Z,100304.97
2022-12-08T04:41:56.468Z,100295.19
2022-12-08T04:44:24.277Z,100295.09
2022-12-08T04:46:54.969Z,100291.66
2022-12-08T04:49:22.721Z,100283.09
2022-12-08T04:51:52.747Z,100278.78
2022-12-08T04:54:21.808Z,100276.69
2022-12-08T04:56:56.357Z,100271.22
2022-12-08T04:59:27.254Z,100268.63
2022-12-08T05:01:55.166Z,100263.63
2022-12-08T05:04:23.094Z,100251.03
2022-12-08T05:06:50.838Z,100242.47
2022-12-08T05:09:18.594Z,100236.81
2022-12-08T05:11:49.278Z,100236.59
2022-12-08T05:14:17.915Z,100241.00
2022-12-08T05:16:45.951Z,100243.72
2022-12-08T05:19:14.038Z,100241.97
2022-12-08T05:21:41.837Z,100240.78
2022-12-08T05:24:09.737Z,100240.63
2022-12-08T05:26:37.612Z,100243.84
2022-12-08T05:29:06.781Z,100251.16
2022-12-08T05:31:34.843Z,100264.66
2022-12-08T05:34:03.500Z,100273.56
2022-12-08T05:36:31.500Z,100282.84
2022-12-08T05:38:59.624Z,100280.16
2022-12-08T05:41:27.371Z,100285.53
2022-12-08T05:43:57.759Z,100275.53
2022-12-08T05:46:28.016Z,100259.13
2022-12-08T05:48:55.768Z,100272.34
2022-12-08T05:51:28.760Z,100273.19
2022-12-08T05:53:58.884Z,100260.81
2022-12-08T05:56:26.642Z,100262.31
2022-12-08T05:58:54.365Z,100261.81
2022-12-08T06:01:23.113Z,100257.19
2022-12-08T06:03:52.194Z,100253.50
2022-12-08T06:06:24.563Z,100253.63
2022-12-08T06:08:53.020Z,100257.44
2022-12-08T06:11:21.492Z,100257.94
2022-12-08T06:13:49.834Z,100246.53
2022-12-08T06:16:18.246Z,100255.94
2022-12-08T06:18:45.997Z,100250.72
2022-12-08T06:21:18.985Z,100250.06
2022-12-08T06:23:49.118Z,100242.88
2022-12-08T06:26:17.211Z,100248.28
2022-12-08T06:28:45.464Z,100263.66
2022-12-08T06:31:15.074Z,100268.44
2022-12-08T06:33:43.007Z,100272.94
2022-12-08T06:36:12.616Z,100277.47
2022-12-08T06:38:43.879Z,100286.38
2022-12-08T06:41:12.409Z,100292.00
2022-12-08T06:43:40.951Z,100296.19
2022-12-08T06:46:09.535Z,100297.78
2022-12-08T06:48:37.311Z,100289.09
2022-12-08T06:51:09.168Z,100290.69
2022-12-08T06:53:37.000Z,100301.56
2022-12-08T06:56:06.957Z,100306.56
2022-12-08T06:58:34.691Z,100306.69
2022-12-08T07:01:05.256Z,100295.34
2022-12-08T07:03:33.119Z,100290.06
2022-12-08T07:06:04.128Z,100277.66
2022-12-08T07:08:32.560Z,100267.16
2022-12-08T07:11:00.864Z,100278.00
2022-12-08T07:13:29.974Z,100273.63
2022-12-08T07:15:57.763Z,100281.78
2022-12-08T07:18:25.546Z,100277.63
2022-12-08T07:20:53.225Z,100276.84
2022-12-08T07:23:21.502Z,100274.19
2022-12-08T07:25:51.889Z,100273.19
2022-12-08T07:28:21.971Z,100277.81
2022-12-08T07:30:51.069Z,100277.81
2022-12-08T07:33:18.866Z,100275.94
2022-12-08T07:35:57.339Z,100266.13
2022-12-08T07:38:34.709Z,100274.81
2022-12-08T07:41:05.285Z,100266.94
2022-12-08T07:43:33.115Z,100269.94
2022-12-08T07:46:02.231Z,100263.28
2022-12-08T07:48:33.818Z,100274.38
2022-12-08T07:51:04.658Z,100270.16
2022-12-08T07:53:35.510Z,100266.28
2022-12-08T07:56:06.549Z,100258.25
2022-12-08T07:58:34.354Z,100253.53
2022-12-08T08:01:08.356Z,100250.63
2022-12-08T08:03:50.623Z,100238.97
2022-12-08T08:06:18.480Z,100234.94
2022-12-08T08:08:50.150Z,100228.31
2022-12-08T08:11:21.868Z,100223.19
2022-12-08T08:13:49.843Z,100215.94
2022-12-08T08:16:19.635Z,100212.34
2022-12-08T08:18:48.122Z,100202.97
2022-12-08T08:24:08.719Z,100198.91
2022-12-08T08:26:36.991Z,100208.44
2022-12-08T08:29:04.741Z,100213.34
2022-12-08T08:31:33.935Z,100226.59
2022-12-08T08:34:07.184Z,100234.19
2022-12-08T08:36:45.263Z,100235.31
2022-12-08T08:39:17.795Z,100238.19
2022-12-08T08:41:47.536Z,100241.53
2022-12-08T08:44:16.015Z,100243.41
2022-12-08T08:46:50.284Z,100240.31
2022-12-08T08:49:24.307Z,100230.19
2022-12-08T08:51:56.185Z,100231.38
2022-12-08T08:54:29.955Z,100225.59
2022-12-08T08:57:01.599Z,100219.94
2022-12-08T08:59:35.211Z,100215.63
2022-12-08T09:02:05.591Z,100215.03
2022-12-08T09:04:38.081Z,100194.31
2022-12-08T09:07:08.293Z,100195.69
2022-12-08T09:09:36.073Z,100190.03
2022-12-08T09:12:06.353Z,100179.53
2022-12-08T09:14:36.860Z,100174.75
2022-12-08T09:17:12.471Z,100166.06
2022-12-08T09:19:42.650Z,100157.00
2022-12-08T09:22:10.408Z,100145.69
2022-12-08T09:24:41.874Z,100138.97
2022-12-08T09:27:11.490Z,100125.84
2022-12-08T09:29:40.779Z,100118.91
2022-12-08T09:32:12.835Z,100114.16
2022-12-08T09:34:40.596Z,100135.31
2022-12-08T09:37:18.845Z,100098.19
2022-12-08T09:39:47.648Z,100124.41
2022-12-08T09:42:30.423Z,100117.75
2022-12-08T09:45:03.665Z,100116.78
2022-12-08T09:47:36.241Z,100112.22
2022-12-08T09:50:08.481Z,100108.81
2022-12-08T09:52:39.334Z,100098.94
2022-12-08T09:55:12.705Z,100096.88
2022-12-08T09:57:40.502Z,100096.22
2022-12-08T10:00:08.994Z,100091.66
2022-12-08T10:02:38.105Z,100084.69
2022-12-08T10:05:06.296Z,100073.75
2022-12-08T10:07:39.108Z,100074.34
2022-12-08T10:10:13.510Z,100072.59
2022-12-08T10:12:43.426Z,100093.06
2022-12-08T10:15:20.461Z,100098.53
2022-12-08T10:17:51.223Z,100086.16
2022-12-08T10:20:20.116Z,100096.56
2022-12-08T10:22:51.234Z,100097.06
2022-12-08T10:25:20.385Z,100092.56
2022-12-08T10:27:50.340Z,100090.06
2022-12-08T10:30:19.880Z,100071.19
2022-12-08T10:32:50.275Z,100063.06
2022-12-08T10:35:18.720Z,100057.94
2022-12-08T10:37:55.953Z,100053.94
2022-12-08T10:40:23.717Z,100046.75
2022-12-08T10:42:52.550Z,100022.97
2022-12-08T10:45:23.544Z,100014.66
2022-12-08T10:47:59.010Z,100015.44
2022-12-08T10:50:29.950Z,100009.09
2022-12-08T10:52:58.566Z,100012.75
2022-12-08T10:55:26.687Z,100018.25
2022-12-08T10:57:54.504Z,100028.84
2022-12-08T11:00:23.225Z,100024.41
2022-12-08T11:02:55.328Z,100019.72
2022-12-08T11:05:27.197Z,100010.25
2022-12-08T11:07:56.086Z,100006.31
2022-12-08T11:10:30.087Z,100006.16
2022-12-08T11:12:59.889Z,100016.06
2022-12-08T11:15:32.872Z,100007.97
2022-12-08T11:18:03.104Z,100001.19
2022-12-08T11:20:38.585Z,99995.06
2022-12-08T11:23:18.783Z,99994.03
2022-12-08T11:25:46.515Z,99994.97
2022-12-08T11:28:14.274Z,99986.59
2022-12-08T11:30:44.865Z,99971.31
2022-12-08T11:33:15.655Z,99971.22
2022-12-08T11:35:46.009Z,99971.97
2022-12-08T11:38:21.736Z,99966.84
2022-12-08T11:40:51.882Z,99971.56
2022-12-08T11:43:22.270Z,99968.00
2022-12-08T11:45:51.066Z,99967.03
2022-12-08T11:48:20.250Z,99963.22
2022-12-08T11:50:51.806Z,99957.38
2022-12-08T11:53:24.652Z,99955.00
2022-12-08T11:55:56.172Z,99951.31
2022-12-08T11:58:27.947Z,99947.59
2022-12-08T12:00:55.756Z,99955.19
2022-12-08T12:03:29.668Z,99959.13
2022-12-08T12:06:37.723Z,99970.88
2022-12-08T12:09:03.060Z,99969.66
2022-12-08T12:11:52.300Z,99964.16
2022-12-08T12:14:29.964Z,99956.41
2022-12-08T12:17:04.964Z,99963.91
2022-12-08T12:19:35.427Z,99953.75
2022-12-08T12:22:08.563Z,99961.84
2022-12-08T12:24:38.787Z,99966.50
2022-12-08T12:27:08.894Z,99969.81
2022-12-08T12:29:38.573Z,99973.97
2022-12-08T12:32:07.866Z,99970.97
2022-12-08T12:34:37.502Z,99974.38
2022-12-08T12:37:08.920Z,99976.91
2022-12-08T12:39:47.579Z,99964.34
2022-12-08T12:42:30.198Z,99957.25
2022-12-08T12:45:12.278Z,99945.50
2022-12-08T12:47:54.081Z,99941.06
2022-12-08T12:50:43.348Z,99927.25
2022-12-08T12:53:25.964Z,99919.75
2022-12-08T12:55:56.263Z,99928.31
2022-12-08T12:58:35.173Z,99919.91
2022-12-08T13:01:21.600Z,99921.72
2022-12-08T13:03:50.805Z,99925.16
2022-12-08T13:06:23.827Z,99924.84
2022-12-08T13:08:53.073Z,99918.00
2022-12-08T13:11:22.608Z,99924.84
2022-12-08T13:13:57.204Z,99936.53
2022-12-08T13:16:26.071Z,99934.69
2022-12-08T13:18:57.595Z,99923.16
2022-12-08T13:21:32.291Z,99924.00
2022-12-08T13:24:17.337Z,99930.25
2022-12-08T13:26:47.109Z,99933.66
2022-12-08T13:29:19.099Z,99934.53
2022-12-08T13:31:50.948Z,99948.19
2022-12-08T13:34:37.365Z,99943.09
2022-12-08T13:37:13.575Z,99944.25
2022-12-08T13:39:44.419Z,99942.53
2022-12-08T13:42:19.866Z,99949.34
2022-12-08T13:45:24.225Z,99942.78
2022-12-08T13:47:59.631Z,99941.94
2022-12-08T13:52:37.000Z,99931.97
2022-12-08T13:59:09.192Z,99911.75
2022-12-08T14:01:43.220Z,99914.16
2022-12-08T14:04:47.513Z,99922.97
2022-12-08T14:07:04.075Z,99926.28
2022-12-08T14:09:34.697Z,99937.09
2022-12-08T14:12:04.472Z,99931.91
2022-12-08T14:15:04.857Z,99934.63
2022-12-08T14:17:23.317Z,99924.34
2022-12-08T14:19:55.152Z,99936.34
2022-12-08T14:22:23.184Z,99940.19
2022-12-08T14:24:51.983Z,99935.63
2022-12-08T14:27:20.552Z,99941.59
2022-12-08T14:29:51.101Z,99939.91
2022-12-08T14:32:24.497Z,99938.16
2022-12-08T14:34:53.870Z,99938.75
2022-12-08T14:37:22.093Z,99952.09
2022-12-08T14:39:50.306Z,99967.59
2022-12-08T14:42:22.398Z,99969.75
2022-12-08T14:44:56.673Z,99968.22
2022-12-08T14:47:29.451Z,99966.09
2022-12-08T14:49:57.215Z,99956.13
2022-12-08T14:52:25.691Z,99950.53
2022-12-08T14:54:54.193Z,99945.59
2022-12-08T14:57:22.496Z,99931.91
2022-12-08T14:59:51.750Z,99934.94
2022-12-08T15:02:26.480Z,99922.34
2022-12-08T15:04:59.132Z,99922.66
2022-12-08T15:07:28.768Z,99913.84
2022-12-08T15:10:10.929Z,99915.00
2022-12-08T15:12:38.725Z,99920.03
2022-12-08T15:15:17.580Z,99924.28
2022-12-08T15:17:46.166Z,99917.16
2022-12-08T15:20:33.225Z,99903.63
2022-12-08T15:23:03.251Z,99900.38
2022-12-08T15:25:31.198Z,99899.56
2022-12-08T15:27:59.028Z,99900.94
2022-12-08T15:30:28.667Z,99898.22
2022-12-08T15:32:56.525Z,99910.34
2022-12-08T15:35:24.348Z,99911.34
2022-12-08T15:37:54.357Z,99910.91
2022-12-08T15:40:22.950Z,99913.75
2022-12-08T15:42:50.698Z,99915.06
2022-12-08T15:45:18.572Z,99925.03
2022-12-08T15:47:47.895Z,99937.13
2022-12-08T15:50:16.427Z,99933.44
2022-12-08T15:52:44.384Z,99937.53
2022-12-08T15:55:15.795Z,99946.34
2022-12-08T15:58:44.644Z,99947.34
2022-12-08T16:07:12.907Z,99963.00
2022-12-08T16:09:13.072Z,99961.03
2022-12-08T16:12:07.762Z,99959.16
2022-12-08T16:17:25.117Z,99952.16
2022-12-08T16:19:54.573Z,99949.91
2022-12-08T16:25:21.843Z,99956.31
2022-12-08T16:28:29.281Z,99953.63
2022-12-08T16:30:44.920Z,99940.22
2022-12-08T16:33:28.570Z,99939.69
2022-12-08T16:36:08.555Z,99944.09
2022-12-08T16:38:39.107Z,99948.66
2022-12-08T16:41:24.610Z,99949.50
2022-12-08T16:43:53.053Z,99952.38
2022-12-08T16:46:23.833Z,99955.63
2022-12-08T16:48:51.649Z,99948.34
2022-12-08T16:51:26.557Z,99945.09
2022-12-08T16:53:54.968Z,99940.97
2022-12-08T16:56:28.782Z,99953.25
2022-12-08T16:58:59.905Z,99964.81
2022-12-08T17:01:27.743Z,99970.91
2022-12-08T17:04:29.054Z,99965.81
2022-12-08T17:06:44.739Z,99979.31
2022-12-08T17:09:12.413Z,99978.22
2022-12-08T17:11:43.378Z,99968.41
2022-12-08T17:14:11.535Z,99976.81
2022-12-08T17:16:39.452Z,99983.53
2022-12-08T17:19:07.332Z,99981.53
2022-12-08T17:21:35.089Z,99977.84
2022-12-08T17:24:04.227Z,99997.03
2022-12-08T17:26:32.041Z,99986.81
2022-12-08T17:29:01.194Z,99990.66
2022-12-08T17:31:30.546Z,99991.38
2022-12-08T17:33:59.109Z,99991.97
2022-12-08T17:36:26.849Z,100001.78
2022-12-08T17:38:54.659Z,99994.94
2022-12-08T17:41:23.794Z,99998.34
2022-12-08T17:43:51.497Z,100007.91
2022-12-08T17:46:19.753Z,100004.06
2022-12-08T17:48:47.606Z,99999.38
2022-12-08T17:51:15.542Z,100002.78
2022-12-08T17:53:43.446Z,100001.22
2022-12-08T17:56:15.364Z,99998.94
2022-12-08T17:58:51.303Z,99988.84
2022-12-08T18:01:22.535Z,100005.06
2022-12-08T18:03:50.423Z,100004.06
2022-12-08T18:06:21.219Z,100004.22
2022-12-08T18:08:49.363Z,100011.34
2022-12-08T18:11:17.730Z,100016.03
2022-12-08T18:13:47.367Z,100017.31
2022-12-08T18:16:15.182Z,100019.88
2022-12-08T18:18:43.364Z,100014.03
2022-12-08T18:21:11.128Z,100012.91
2022-12-08T18:23:39.226Z,100016.34
2022-12-08T18:26:07.149Z,100018.88
2022-12-08T18:28:35.243Z,100012.47
2022-12-08T18:31:08.486Z,100018.16
2022-12-08T18:33:36.373Z,100015.47
2022-12-08T18:36:07.669Z,100011.22
2022-12-08T18:38:35.378Z,100014.63
2022-12-08T18:41:05.302Z,100015.31
2022-12-08T18:43:33.357Z,100017.59
2022-12-08T18:46:07.695Z,100015.03
2022-12-08T18:48:35.756Z,100015.72
2022-12-08T18:51:03.490Z,100006.38
2022-12-08T18:53:31.454Z,100013.03
2022-12-08T18:55:59.174Z,99983.22
2022-12-08T18:58:26.908Z,100013.47
2022-12-08T19:00:54.653Z,100025.28
2022-12-08T19:03:23.851Z,100025.94
2022-12-08T19:05:51.635Z,100023.53
2022-12-08T19:08:19.447Z,100024.81
2022-12-08T19:10:47.246Z,100023.00
2022-12-08T19:13:14.997Z,100028.81
2022-12-08T19:15:42.760Z,100027.53
2022-12-08T19:18:10.829Z,100032.66
2022-12-08T19:20:39.944Z,100034.94
2022-12-08T19:23:07.734Z,100035.09
2022-12-08T19:25:35.457Z,100035.91
2022-12-08T19:28:03.203Z,100035.19
2022-12-08T19:30:32.292Z,100035.34
2022-12-08T19:33:00.026Z,100039.06
2022-12-08T19:35:27.766Z,100032.94
2022-12-08T19:37:56.947Z,100033.09
2022-12-08T19:40:42.426Z,100020.75
2022-12-08T19:43:32.353Z,100022.59
2022-12-08T19:46:00.195Z,100033.09
2022-12-08T19:48:27.985Z,100035.09
2022-12-08T19:50:55.707Z,100031.97
2022-12-08T19:53:25.307Z,100029.13
2022-12-08T19:55:53.274Z,100029.41
2022-12-08T19:58:21.049Z,100022.72
2022-12-08T20:00:48.879Z,100022.84
2022-12-08T20:03:17.041Z,100022.59
2022-12-08T20:05:45.523Z,100025.84
2022-12-08T20:08:16.718Z,100025.84
2022-12-08T20:10:46.754Z,100023.69
2022-12-08T20:13:31.961Z,100031.81
2022-12-08T20:15:59.856Z,100028.53
2022-12-08T20:18:28.694Z,100027.13
2022-12-08T20:20:57.020Z,100041.19
2022-12-08T20:23:24.831Z,100047.31
2022-12-08T20:25:54.047Z,100046.28
2022-12-08T20:28:22.534Z,100039.91
2022-12-08T20:30:50.436Z,100036.63
2022-12-08T20:33:19.051Z,100034.34
2022-12-08T20:35:47.302Z,100040.75
2022-12-08T20:38:15.077Z,100042.63
2022-12-08T20:40:43.847Z,100049.41
2022-12-08T20:43:13.021Z,100051.41
2022-12-08T20:45:40.767Z,100049.88
2022-12-08T20:48:08.543Z,100047.84
2022-12-08T20:50:36.468Z,100062.38
2022-12-08T20:53:04.486Z,100065.06
2022-12-08T20:55:32.360Z,100060.09
2022-12-08T20:58:00.237Z,100062.78
2022-12-08T21:00:29.406Z,100066.78
2022-12-08T21:02:57.605Z,100069.59
2022-12-08T21:05:25.716Z,100079.00
2022-12-08T21:07:53.801Z,100080.28
2022-12-08T21:10:21.840Z,100077.00
2022-12-08T21:12:49.750Z,100075.16
2022-12-08T21:15:17.700Z,100072.91
2022-12-08T21:17:47.046Z,100071.59
2022-12-08T21:20:15.204Z,100073.16
2022-12-08T21:22:43.024Z,100091.94
2022-12-08T21:25:10.886Z,100082.53
2022-12-08T21:27:39.096Z,100081.56
2022-12-08T21:30:08.197Z,100080.56
2022-12-08T21:32:36.275Z,100082.53
2022-12-08T21:35:05.975Z,100082.13
2022-12-08T21:38:10.057Z,100073.88
2022-12-08T21:40:38.386Z,100079.84
2022-12-08T21:43:06.398Z,100086.81
2022-12-08T21:45:35.320Z,100085.81
2022-12-08T21:48:11.031Z,100076.84
2022-12-08T21:50:39.698Z,100075.16
2022-12-08T21:53:09.090Z,100074.28
2022-12-08T21:55:37.220Z,100079.97
2022-12-08T21:58:05.629Z,100074.56
2022-12-08T22:00:33.833Z,100075.59
2022-12-08T22:03:02.106Z,100072.56
2022-12-08T22:05:30.250Z,100078.28
2022-12-08T22:07:58.526Z,100075.41
2022-12-08T22:10:28.039Z,100072.69
2022-12-08T22:12:56.016Z,100077.78
2022-12-08T22:15:24.054Z,100067.69
2022-12-08T22:17:52.302Z,100057.41
2022-12-08T22:20:20.698Z,100057.28
2022-12-08T22:22:49.197Z,100061.31
2022-12-08T22:25:17.319Z,100063.31
2022-12-08T22:27:47.951Z,100067.75
2022-12-08T22:30:16.303Z,100059.34
2022-12-08T22:32:44.478Z,100055.94
2022-12-08T22:35:12.713Z,100046.84
2022-12-08T22:37:40.856Z,100042.03
2022-12-08T22:40:10.071Z,100047.31
2022-12-08T22:42:38.306Z,100049.88
2022-12-08T22:45:09.349Z,100058.41
2022-12-08T22:47:37.392Z,100064.50
2022-12-08T22:50:07.103Z,100062.66
2022-12-08T22:52:35.651Z,100062.25
2022-12-08T22:55:03.687Z,100075.56
2022-12-08T22:57:31.893Z,100071.91
2022-12-08T22:59:59.855Z,100067.47
2022-12-08T23:02:29.328Z,100064.06
2022-12-08T23:04:57.936Z,100058.97
2022-12-08T23:07:26.037Z,100053.56
2022-12-08T23:09:54.127Z,100049.44
2022-12-08T23:12:22.411Z,100048.75
2022-12-08T23:14:50.508Z,100047.31
2022-12-08T23:17:18.847Z,100049.31
2022-12-08T23:19:48.245Z,100045.59
2022-12-08T23:22:16.388Z,100051.56
2022-12-08T23:24:44.627Z,100055.25
2022-12-08T23:27:12.682Z,100040.78
2022-12-08T23:29:40.809Z,100041.78
2022-12-08T23:32:09.032Z,100053.16
2022-12-08T23:34:37.049Z,100060.97
2022-12-08T23:37:06.407Z,100053.72
2022-12-08T23:39:34.775Z,100049.44
2022-12-08T23:42:02.820Z,100042.63
2022-12-08T23:44:31.481Z,100040.22
2022-12-08T23:46:59.563Z,100045.03
2022-12-08T23:49:28.073Z,100039.78
2022-12-08T23:51:56.226Z,100040.78
2022-12-08T23:54:25.799Z,100035.78
2022-12-08T23:56:54.039Z,100041.47
2022-12-08T23:59:22.228Z,100030.41
